Terminal Aerodrome Forecast
Issued by NWS Cleveland, OH

Home | Current Version | Previous Version | Text Only | Print | Product List | Glossary Off
Versions: 1 2 3 4 5 6 7 8 9 10 11 12 13

000
FTUS41 KCLE 182336
TAFERI
TAF
KERI 182336Z 1900/1924 26012G20KT P6SM BKN060
     FM190300 27010KT P6SM FEW060
     FM191300 25010KT P6SM BKN100
     FM191700 27008KT P6SM VCSH BKN050
     FM192100 28010KT P6SM BKN100=

USA.gov is the U.S. government's official web portal to all federal, state and local government web resources and services.